sensor_id;sensor_type;location;lat;lon;timestamp;pressure;altitude;pressure_sealevel;temperature;humidity
53246;BME280;39569;51.090;-1.786;2024-01-15T00:00:11;100472.94;;;14.86;32.62
53246;BME280;39569;51.090;-1.786;2024-01-15T00:02:39;100473.34;;;14.90;33.11
53246;BME280;39569;51.090;-1.786;2024-01-15T00:05:06;100465.09;;;14.71;33.08
53246;BME280;39569;51.090;-1.786;2024-01-15T00:07:33;100461.16;;;14.81;32.68
53246;BME280;39569;51.090;-1.786;2024-01-15T00:10:00;100463.81;;;14.94;32.66
53246;BME280;39569;51.090;-1.786;2024-01-15T00:12:26;100461.53;;;14.97;32.74
53246;BME280;39569;51.090;-1.786;2024-01-15T00:14:53;100462.59;;;14.90;32.88
53246;BME280;39569;51.090;-1.786;2024-01-15T00:17:20;100457.63;;;14.67;33.13
53246;BME280;39569;51.090;-1.786;2024-01-15T00:19:48;100455.34;;;14.90;33.10
53246;BME280;39569;51.090;-1.786;2024-01-15T00:22:15;100459.28;;;14.88;32.90
53246;BME280;39569;51.090;-1.786;2024-01-15T00:24:42;100458.00;;;14.97;32.98
53246;BME280;39569;51.090;-1.786;2024-01-15T00:27:08;100453.69;;;14.96;33.63
53246;BME280;39569;51.090;-1.786;2024-01-15T00:29:35;100450.38;;;14.87;33.44
53246;BME280;39569;51.090;-1.786;2024-01-15T00:32:02;100440.25;;;14.76;33.82
53246;BME280;39569;51.090;-1.786;2024-01-15T00:34:29;100440.88;;;14.32;33.71
53246;BME280;39569;51.090;-1.786;2024-01-15T00:36:57;100440.47;;;14.55;33.86
53246;BME280;39569;51.090;-1.786;2024-01-15T00:39:23;100438.81;;;14.28;33.66
53246;BME280;39569;51.090;-1.786;2024-01-15T00:41:51;100436.56;;;14.51;33.28
53246;BME280;39569;51.090;-1.786;2024-01-15T00:44:18;100430.16;;;14.45;32.99
53246;BME280;39569;51.090;-1.786;2024-01-15T00:46:45;100428.91;;;14.41;33.85
53246;BME280;39569;51.090;-1.786;2024-01-15T00:49:12;100436.13;;;14.80;33.53
53246;BME280;39569;51.090;-1.786;2024-01-15T00:51:39;100430.72;;;14.21;33.91
53246;BME280;39569;51.090;-1.786;2024-01-15T00:54:08;100436.31;;;14.33;33.54
53246;BME280;39569;51.090;-1.786;2024-01-15T00:56:34;100432.22;;;14.43;33.34
53246;BME280;39569;51.090;-1.786;2024-01-15T00:59:01;100431.34;;;14.62;33.57
53246;BME280;39569;51.090;-1.786;2024-01-15T01:01:28;100421.44;;;14.76;32.75
53246;BME280;39569;51.090;-1.786;2024-01-15T01:03:55;100425.97;;;14.82;32.98
53246;BME280;39569;51.090;-1.786;2024-01-15T01:06:22;100418.28;;;14.99;33.05
53246;BME280;39569;51.090;-1.786;2024-01-15T01:08:48;100414.16;;;14.96;33.16
53246;BME280;39569;51.090;-1.786;2024-01-15T01:11:16;100419.25;;;15.24;33.79
53246;BME280;39569;51.090;-1.786;2024-01-15T01:13:43;100419.78;;;14.88;33.60
53246;BME280;39569;51.090;-1.786;2024-01-15T01:16:10;100411.91;;;14.93;33.63
53246;BME280;39569;51.090;-1.786;2024-01-15T01:18:36;100406.75;;;14.78;33.67
53246;BME280;39569;51.090;-1.786;2024-01-15T01:21:03;100405.94;;;14.65;34.03
53246;BME280;39569;51.090;-1.786;2024-01-15T01:23:30;100403.25;;;14.58;33.87
53246;BME280;39569;51.090;-1.786;2024-01-15T01:25:57;100406.97;;;14.64;33.96
53246;BME280;39569;51.090;-1.786;2024-01-15T01:28:25;100403.19;;;14.98;33.64
53246;BME280;39569;51.090;-1.786;2024-01-15T01:30:51;100401.97;;;14.87;33.75
53246;BME280;39569;51.090;-1.786;2024-01-15T01:33:18;100400.94;;;14.88;33.43
53246;BME280;39569;51.090;-1.786;2024-01-15T01:35:45;100398.88;;;14.84;33.61
53246;BME280;39569;51.090;-1.786;2024-01-15T01:38:12;100384.41;;;14.85;33.43
53246;BME280;39569;51.090;-1.786;2024-01-15T01:40:39;100389.78;;;14.78;33.60
53246;BME280;39569;51.090;-1.786;2024-01-15T01:43:05;100397.81;;;14.91;33.25
53246;BME280;39569;51.090;-1.786;2024-01-15T01:45:33;100396.13;;;15.03;33.26
53246;BME280;39569;51.090;-1.786;2024-01-15T01:48:00;100389.53;;;14.93;33.43
53246;BME280;39569;51.090;-1.786;2024-01-15T01:50:28;100383.13;;;15.00;33.69
53246;BME280;39569;51.090;-1.786;2024-01-15T01:52:55;100387.56;;;14.36;34.18
53246;BME280;39569;51.090;-1.786;2024-01-15T01:55:24;100389.69;;;15.11;33.45
53246;BME280;39569;51.090;-1.786;2024-01-15T01:57:53;100383.28;;;15.05;33.80
53246;BME280;39569;51.090;-1.786;2024-01-15T02:00:21;100382.72;;;14.97;33.83
53246;BME280;39569;51.090;-1.786;2024-01-15T02:02:49;100382.69;;;15.10;33.70
53246;BME280;39569;51.090;-1.786;2024-01-15T02:05:18;100378.28;;;15.22;33.38
53246;BME280;39569;51.090;-1.786;2024-01-15T02:07:45;100379.22;;;14.90;33.70
53246;BME280;39569;51.090;-1.786;2024-01-15T02:10:13;100376.91;;;15.00;33.44
53246;BME280;39569;51.090;-1.786;2024-01-15T02:12:39;100372.53;;;15.05;33.89
53246;BME280;39569;51.090;-1.786;2024-01-15T02:15:07;100380.41;;;15.07;33.52
53246;BME280;39569;51.090;-1.786;2024-01-15T02:17:33;100373.81;;;15.03;33.90
53246;BME280;39569;51.090;-1.786;2024-01-15T02:20:02;100373.59;;;14.98;34.42
53246;BME280;39569;51.090;-1.786;2024-01-15T02:22:29;100377.38;;;14.84;34.13
53246;BME280;39569;51.090;-1.786;2024-01-15T02:24:57;100378.03;;;14.33;34.99
53246;BME280;39569;51.090;-1.786;2024-01-15T02:27:23;100384.47;;;14.45;35.00
53246;BME280;39569;51.090;-1.786;2024-01-15T02:29:50;100379.47;;;14.68;34.39
53246;BME280;39569;51.090;-1.786;2024-01-15T02:32:17;100379.47;;;14.68;34.26
53246;BME280;39569;51.090;-1.786;2024-01-15T02:34:44;100387.91;;;14.92;33.69
53246;BME280;39569;51.090;-1.786;2024-01-15T02:37:11;100380.03;;;14.97;33.92
53246;BME280;39569;51.090;-1.786;2024-01-15T02:39:37;100385.41;;;14.97;33.96
53246;BME280;39569;51.090;-1.786;2024-01-15T02:42:06;100386.16;;;15.23;33.94
53246;BME280;39569;51.090;-1.786;2024-01-15T02:44:33;100387.03;;;15.04;34.44
53246;BME280;39569;51.090;-1.786;2024-01-15T02:46:59;100391.63;;;14.97;34.72
53246;BME280;39569;51.090;-1.786;2024-01-15T02:49:26;100393.44;;;15.03;34.39
53246;BME280;39569;51.090;-1.786;2024-01-15T02:51:53;100385.38;;;15.03;34.31
53246;BME280;39569;51.090;-1.786;2024-01-15T02:54:19;100392.38;;;15.11;34.62
53246;BME280;39569;51.090;-1.786;2024-01-15T02:56:46;100390.59;;;14.92;34.91
53246;BME280;39569;51.090;-1.786;2024-01-15T02:59:14;100379.94;;;15.23;34.45
53246;BME280;39569;51.090;-1.786;2024-01-15T03:01:41;100378.00;;;14.72;35.06
53246;BME280;39569;51.090;-1.786;2024-01-15T03:04:07;100376.78;;;14.75;34.79
53246;BME280;39569;51.090;-1.786;2024-01-15T03:06:34;100375.47;;;14.97;34.94
53246;BME280;39569;51.090;-1.786;2024-01-15T03:09:01;100382.94;;;14.95;35.03
53246;BME280;39569;51.090;-1.786;2024-01-15T03:11:29;100380.84;;;14.91;35.38
53246;BME280;39569;51.090;-1.786;2024-01-15T03:13:55;100374.25;;;14.93;35.15
53246;BME280;39569;51.090;-1.786;2024-01-15T03:16:23;100380.16;;;15.15;35.11
53246;BME280;39569;51.090;-1.786;2024-01-15T03:18:50;100375.91;;;14.81;35.67
53246;BME280;39569;51.090;-1.786;2024-01-15T03:21:17;100381.47;;;14.99;35.54
53246;BME280;39569;51.090;-1.786;2024-01-15T03:23:43;100376.28;;;15.04;35.89
53246;BME280;39569;51.090;-1.786;2024-01-15T03:26:10;100387.25;;;15.03;35.65
53246;BME280;39569;51.090;-1.786;2024-01-15T03:28:37;100379.59;;;15.06;35.63
53246;BME280;39569;51.090;-1.786;2024-01-15T03:31:04;100384.56;;;15.03;35.74
53246;BME280;39569;51.090;-1.786;2024-01-15T03:33:32;100378.09;;;15.23;35.69
53246;BME280;39569;51.090;-1.786;2024-01-15T03:35:59;100374.22;;;15.06;35.52
53246;BME280;39569;51.090;-1.786;2024-01-15T03:38:28;100378.03;;;15.30;35.46
53246;BME280;39569;51.090;-1.786;2024-01-15T03:40:54;100385.38;;;15.03;36.10
53246;BME280;39569;51.090;-1.786;2024-01-15T03:43:20;100371.13;;;14.96;35.73
53246;BME280;39569;51.090;-1.786;2024-01-15T03:45:47;100371.78;;;14.92;36.05
53246;BME280;39569;51.090;-1.786;2024-01-15T03:48:14;100380.63;;;14.92;36.20
53246;BME280;39569;51.090;-1.786;2024-01-15T03:50:42;100386.66;;;14.81;36.54
53246;BME280;39569;51.090;-1.786;2024-01-15T03:53:08;100384.63;;;14.05;37.44
53246;BME280;39569;51.090;-1.786;2024-01-15T03:55:35;100372.00;;;13.99;37.70
53246;BME280;39569;51.090;-1.786;2024-01-15T03:58:02;100367.50;;;14.12;37.21
53246;BME280;39569;51.090;-1.786;2024-01-15T04:00:29;100370.78;;;14.53;36.62
53246;BME280;39569;51.090;-1.786;2024-01-15T04:02:55;100368.56;;;14.31;37.52
53246;BME280;39569;51.090;-1.786;2024-01-15T04:05:22;100370.38;;;14.24;37.17
53246;BME280;39569;51.090;-1.786;2024-01-15T04:07:50;100361.28;;;14.64;37.01
53246;BME280;39569;51.090;-1.786;2024-01-15T04:10:17;100370.41;;;14.37;36.93
53246;BME280;39569;51.090;-1.786;2024-01-15T04:12:43;100367.72;;;14.37;36.46
53246;BME280;39569;51.090;-1.786;2024-01-15T04:15:11;100360.47;;;14.37;36.80
53246;BME280;39569;51.090;-1.786;2024-01-15T04:17:38;100353.88;;;14.33;36.71
53246;BME280;39569;51.090;-1.786;2024-01-15T04:20:05;100355.31;;;14.29;37.14
53246;BME280;39569;51.090;-1.786;2024-01-15T04:22:33;100349.91;;;14.16;36.77
53246;BME280;39569;51.090;-1.786;2024-01-15T04:25:01;100348.91;;;13.98;37.41
53246;BME280;39569;51.090;-1.786;2024-01-15T04:27:28;100347.56;;;13.61;37.82
53246;BME280;39569;51.090;-1.786;2024-01-15T04:29:55;100348.88;;;13.91;37.48
53246;BME280;39569;51.090;-1.786;2024-01-15T04:32:21;100339.16;;;13.83;37.28
53246;BME280;39569;51.090;-1.786;2024-01-15T04:34:48;100347.41;;;13.75;37.28
53246;BME280;39569;51.090;-1.786;2024-01-15T04:37:15;100340.41;;;13.88;37.35
53246;BME280;39569;51.090;-1.786;2024-01-15T04:39:41;100342.47;;;13.79;37.68
53246;BME280;39569;51.090;-1.786;2024-01-15T04:42:09;100339.78;;;14.25;37.28
53246;BME280;39569;51.090;-1.786;2024-01-15T04:44:36;100343.31;;;14.06;37.07
53246;BME280;39569;51.090;-1.786;2024-01-15T04:47:03;100329.63;;;13.61;38.18
53246;BME280;39569;51.090;-1.786;2024-01-15T04:49:30;100336.84;;;13.61;38.21
53246;BME280;39569;51.090;-1.786;2024-01-15T04:51:56;100335.88;;;14.21;37.12
53246;BME280;39569;51.090;-1.786;2024-01-15T04:54:23;100332.59;;;14.32;36.45
53246;BME280;39569;51.090;-1.786;2024-01-15T04:56:50;100333.16;;;13.81;37.42
53246;BME280;39569;51.090;-1.786;2024-01-15T04:59:18;100338.75;;;14.26;37.25
53246;BME280;39569;51.090;-1.786;2024-01-15T05:01:44;100334.44;;;13.99;37.04
53246;BME280;39569;51.090;-1.786;2024-01-15T05:04:11;100341.03;;;14.16;36.83
53246;BME280;39569;51.090;-1.786;2024-01-15T05:06:38;100332.34;;;14.07;36.65
53246;BME280;39569;51.090;-1.786;2024-01-15T05:09:05;100335.25;;;14.19;36.62
53246;BME280;39569;51.090;-1.786;2024-01-15T05:11:32;100340.00;;;13.84;37.01
53246;BME280;39569;51.090;-1.786;2024-01-15T05:13:59;100340.00;;;13.84;37.32
53246;BME280;39569;51.090;-1.786;2024-01-15T05:16:27;100344.53;;;13.83;37.27
53246;BME280;39569;51.090;-1.786;2024-01-15T05:18:53;100346.03;;;13.26;38.26
53246;BME280;39569;51.090;-1.786;2024-01-15T05:21:20;100345.97;;;13.73;37.38
53246;BME280;39569;51.090;-1.786;2024-01-15T05:23:47;100344.88;;;13.61;37.40
53246;BME280;39569;51.090;-1.786;2024-01-15T05:26:14;100354.97;;;13.39;37.44
53246;BME280;39569;51.090;-1.786;2024-01-15T05:28:41;100352.69;;;13.43;37.61
53246;BME280;39569;51.090;-1.786;2024-01-15T05:31:08;100357.53;;;13.07;38.02
53246;BME280;39569;51.090;-1.786;2024-01-15T05:33:36;100350.31;;;13.14;38.35
53246;BME280;39569;51.090;-1.786;2024-01-15T05:36:04;100363.25;;;13.04;37.90
53246;BME280;39569;51.090;-1.786;2024-01-15T05:38:30;100361.00;;;12.73;38.10
53246;BME280;39569;51.090;-1.786;2024-01-15T05:40:57;100361.25;;;12.78;38.11
53246;BME280;39569;51.090;-1.786;2024-01-15T05:43:24;100364.88;;;12.64;38.78
53246;BME280;39569;51.090;-1.786;2024-01-15T05:45:51;100368.13;;;12.59;38.31
53246;BME280;39569;51.090;-1.786;2024-01-15T05:48:17;100369.44;;;12.42;38.36
53246;BME280;39569;51.090;-1.786;2024-01-15T05:50:45;100373.19;;;12.48;39.00
53246;BME280;39569;51.090;-1.786;2024-01-15T05:53:12;100381.06;;;12.22;38.87
53246;BME280;39569;51.090;-1.786;2024-01-15T05:55:40;100377.53;;;12.21;38.94
53246;BME280;39569;51.090;-1.786;2024-01-15T05:58:06;100382.34;;;12.05;39.69
53246;BME280;39569;51.090;-1.786;2024-01-15T06:00:33;100378.53;;;12.20;38.91
53246;BME280;39569;51.090;-1.786;2024-01-15T06:03:01;100384.63;;;12.08;39.13
53246;BME280;39569;51.090;-1.786;2024-01-15T06:05:28;100374.09;;;12.06;39.32
53246;BME280;39569;51.090;-1.786;2024-01-15T06:07:56;100378.09;;;12.17;39.01
53246;BME280;39569;51.090;-1.786;2024-01-15T06:10:23;100381.19;;;11.93;39.60
53246;BME280;39569;51.090;-1.786;2024-01-15T06:12:49;100384.44;;;11.88;39.55
53246;BME280;39569;51.090;-1.786;2024-01-15T06:15:16;100392.16;;;11.76;39.86
53246;BME280;39569;51.090;-1.786;2024-01-15T06:17:43;100399.72;;;11.73;39.89
53246;BME280;39569;51.090;-1.786;2024-01-15T06:20:11;100396.66;;;11.76;39.84
53246;BME280;39569;51.090;-1.786;2024-01-15T06:22:38;100401.03;;;11.62;39.76
53246;BME280;39569;51.090;-1.786;2024-01-15T06:25:07;100395.03;;;11.60;40.34
53246;BME280;39569;51.090;-1.786;2024-01-15T06:27:34;100403.75;;;11.83;39.52
53246;BME280;39569;51.090;-1.786;2024-01-15T06:30:01;100401.84;;;11.63;40.36
53246;BME280;39569;51.090;-1.786;2024-01-15T06:32:28;100403.69;;;11.12;41.13
53246;BME280;39569;51.090;-1.786;2024-01-15T06:34:55;100406.28;;;11.06;41.79
53246;BME280;39569;51.090;-1.786;2024-01-15T06:37:22;100405.28;;;10.92;41.50
53246;BME280;39569;51.090;-1.786;2024-01-15T06:39:49;100402.59;;;11.21;41.47
53246;BME280;39569;51.090;-1.786;2024-01-15T06:42:17;100410.88;;;11.12;41.94
53246;BME280;39569;51.090;-1.786;2024-01-15T06:44:43;100410.19;;;11.39;40.84
53246;BME280;39569;51.090;-1.786;2024-01-15T06:47:10;100407.03;;;11.14;40.98
53246;BME280;39569;51.090;-1.786;2024-01-15T06:49:37;100415.59;;;10.95;41.45
53246;BME280;39569;51.090;-1.786;2024-01-15T06:52:04;100405.50;;;11.41;40.38
53246;BME280;39569;51.090;-1.786;2024-01-15T06:54:31;100412.22;;;11.37;40.39
53246;BME280;39569;51.090;-1.786;2024-01-15T06:56:58;100408.19;;;11.26;40.42
53246;BME280;39569;51.090;-1.786;2024-01-15T06:59:26;100407.56;;;11.60;40.33
53246;BME280;39569;51.090;-1.786;2024-01-15T07:01:53;100416.56;;;11.38;40.07
53246;BME280;39569;51.090;-1.786;2024-01-15T07:04:20;100409.25;;;11.46;39.85
53246;BME280;39569;51.090;-1.786;2024-01-15T07:06:47;100401.94;;;11.19;40.40
53246;BME280;39569;51.090;-1.786;2024-01-15T07:09:13;100408.06;;;11.49;39.82
53246;BME280;39569;51.090;-1.786;2024-01-15T07:11:44;100404.25;;;11.72;39.20
53246;BME280;39569;51.090;-1.786;2024-01-15T07:14:11;100412.03;;;11.53;39.42
53246;BME280;39569;51.090;-1.786;2024-01-15T07:16:39;100403.25;;;11.73;39.22
53246;BME280;39569;51.090;-1.786;2024-01-15T07:19:06;100416.72;;;11.51;39.21
53246;BME280;39569;51.090;-1.786;2024-01-15T07:21:32;100413.44;;;11.34;39.12
53246;BME280;39569;51.090;-1.786;2024-01-15T07:23:59;100405.25;;;11.21;39.43
53246;BME280;39569;51.090;-1.786;2024-01-15T07:26:26;100419.25;;;10.94;39.84
53246;BME280;39569;51.090;-1.786;2024-01-15T07:28:53;100427.00;;;10.89;40.06
53246;BME280;39569;51.090;-1.786;2024-01-15T07:31:19;100426.91;;;10.68;40.49
53246;BME280;39569;51.090;-1.786;2024-01-15T07:33:48;100424.34;;;10.89;40.48
53246;BME280;39569;51.090;-1.786;2024-01-15T07:36:14;100421.19;;;10.71;39.87
53246;BME280;39569;51.090;-1.786;2024-01-15T07:38:41;100429.47;;;10.76;39.97
53246;BME280;39569;51.090;-1.786;2024-01-15T07:41:08;100428.41;;;10.48;40.80
53246;BME280;39569;51.090;-1.786;2024-01-15T07:43:35;100429.28;;;10.77;40.18
53246;BME280;39569;51.090;-1.786;2024-01-15T07:46:01;100428.84;;;10.74;40.18
53246;BME280;39569;51.090;-1.786;2024-01-15T07:48:28;100431.69;;;10.87;39.86
53246;BME280;39569;51.090;-1.786;2024-01-15T07:50:56;100437.41;;;10.84;40.29
53246;BME280;39569;51.090;-1.786;2024-01-15T07:53:23;100442.66;;;10.77;39.87
53246;BME280;39569;51.090;-1.786;2024-01-15T07:55:50;100443.31;;;10.94;39.57
53246;BME280;39569;51.090;-1.786;2024-01-15T07:58:17;100438.53;;;10.89;39.64
53246;BME280;39569;51.090;-1.786;2024-01-15T08:00:43;100441.22;;;10.52;40.31
53246;BME280;39569;51.090;-1.786;2024-01-15T08:03:10;100445.31;;;10.77;40.22
53246;BME280;39569;51.090;-1.786;2024-01-15T08:05:38;100456.63;;;10.65;40.28
53246;BME280;39569;51.090;-1.786;2024-01-15T08:08:06;100455.56;;;10.88;40.04
53246;BME280;39569;51.090;-1.786;2024-01-15T08:10:33;100456.31;;;10.97;39.82
53246;BME280;39569;51.090;-1.786;2024-01-15T08:12:59;100458.41;;;11.02;39.45
53246;BME280;39569;51.090;-1.786;2024-01-15T08:15:26;100460.44;;;11.00;39.64
53246;BME280;39569;51.090;-1.786;2024-01-15T08:17:53;100464.06;;;10.92;39.83
53246;BME280;39569;51.090;-1.786;2024-01-15T08:20:20;100469.31;;;11.00;39.71
53246;BME280;39569;51.090;-1.786;2024-01-15T08:22:47;100479.06;;;11.22;39.20
53246;BME280;39569;51.090;-1.786;2024-01-15T08:25:15;100480.09;;;11.07;40.01
53246;BME280;39569;51.090;-1.786;2024-01-15T08:27:42;100485.34;;;11.15;39.09
53246;BME280;39569;51.090;-1.786;2024-01-15T08:30:10;100488.13;;;11.21;39.50
53246;BME280;39569;51.090;-1.786;2024-01-15T08:32:37;100486.75;;;11.11;39.20
53246;BME280;39569;51.090;-1.786;2024-01-15T08:35:07;100481.84;;;11.14;39.17
53246;BME280;39569;51.090;-1.786;2024-01-15T08:37:34;100493.66;;;11.34;39.02
53246;BME280;39569;51.090;-1.786;2024-01-15T08:40:01;100493.72;;;10.97;39.47
53246;BME280;39569;51.090;-1.786;2024-01-15T08:42:30;100494.75;;;11.54;39.01
53246;BME280;39569;51.090;-1.786;2024-01-15T08:44:56;100490.97;;;11.34;39.00
53246;BME280;39569;51.090;-1.786;2024-01-15T08:47:23;100488.56;;;11.10;39.01
53246;BME280;39569;51.090;-1.786;2024-01-15T08:49:51;100492.81;;;11.19;39.04
53246;BME280;39569;51.090;-1.786;2024-01-15T08:52:17;100493.00;;;11.18;39.38
53246;BME280;39569;51.090;-1.786;2024-01-15T08:54:45;100500.28;;;11.24;39.44
53246;BME280;39569;51.090;-1.786;2024-01-15T08:57:12;100508.22;;;11.32;38.95
53246;BME280;39569;51.090;-1.786;2024-01-15T08:59:40;100508.56;;;11.58;39.33
53246;BME280;39569;51.090;-1.786;2024-01-15T09:02:07;100505.66;;;11.38;39.06
53246;BME280;39569;51.090;-1.786;2024-01-15T09:04:34;100512.09;;;11.44;39.36
53246;BME280;39569;51.090;-1.786;2024-01-15T09:07:00;100509.50;;;11.50;39.22
53246;BME280;39569;51.090;-1.786;2024-01-15T09:09:27;100506.19;;;11.48;39.02
53246;BME280;39569;51.090;-1.786;2024-01-15T09:11:54;100508.59;;;11.43;39.00
53246;BME280;39569;51.090;-1.786;2024-01-15T09:14:20;100502.56;;;11.56;39.12
53246;BME280;39569;51.090;-1.786;2024-01-15T09:16:50;100496.50;;;11.76;39.07
53246;BME280;39569;51.090;-1.786;2024-01-15T09:19:17;100510.88;;;11.46;39.36
53246;BME280;39569;51.090;-1.786;2024-01-15T09:21:44;100508.78;;;11.42;39.50
53246;BME280;39569;51.090;-1.786;2024-01-15T09:24:11;100510.59;;;11.70;39.18
53246;BME280;39569;51.090;-1.786;2024-01-15T09:26:38;100509.88;;;11.76;39.07
53246;BME280;39569;51.090;-1.786;2024-01-15T09:29:04;100506.75;;;11.73;39.50
53246;BME280;39569;51.090;-1.786;2024-01-15T09:31:31;100513.06;;;11.57;39.59
53246;BME280;39569;51.090;-1.786;2024-01-15T09:33:59;100506.22;;;11.99;38.78
53246;BME280;39569;51.090;-1.786;2024-01-15T09:36:27;100519.00;;;11.82;38.88
53246;BME280;39569;51.090;-1.786;2024-01-15T09:38:54;100512.84;;;12.38;37.74
53246;BME280;39569;51.090;-1.786;2024-01-15T09:41:21;100506.16;;;12.55;37.70
53246;BME280;39569;51.090;-1.786;2024-01-15T09:43:48;100503.44;;;12.49;38.17
53246;BME280;39569;51.090;-1.786;2024-01-15T09:46:15;100502.72;;;12.61;37.66
53246;BME280;39569;51.090;-1.786;2024-01-15T09:48:43;100509.44;;;12.51;37.74
53246;BME280;39569;51.090;-1.786;2024-01-15T09:51:11;100507.38;;;12.74;37.55
53246;BME280;39569;51.090;-1.786;2024-01-15T09:53:39;100512.28;;;12.70;37.10
53246;BME280;39569;51.090;-1.786;2024-01-15T09:56:08;100516.44;;;12.73;37.55
53246;BME280;39569;51.090;-1.786;2024-01-15T09:58:35;100516.94;;;13.11;36.93
53246;BME280;39569;51.090;-1.786;2024-01-15T10:01:03;100508.56;;;13.20;36.57
53246;BME280;39569;51.090;-1.786;2024-01-15T10:03:30;100511.59;;;13.45;36.20
53246;BME280;39569;51.090;-1.786;2024-01-15T10:05:59;100513.25;;;13.46;36.29
53246;BME280;39569;51.090;-1.786;2024-01-15T10:08:27;100516.63;;;13.61;36.15
53246;BME280;39569;51.090;-1.786;2024-01-15T10:10:54;100520.09;;;12.93;36.83
53246;BME280;39569;51.090;-1.786;2024-01-15T10:13:21;100517.59;;;12.43;36.70
53246;BME280;39569;51.090;-1.786;2024-01-15T10:15:48;100531.41;;;13.10;36.03
53246;BME280;39569;51.090;-1.786;2024-01-15T10:18:15;100530.03;;;12.50;37.03
53246;BME280;39569;51.090;-1.786;2024-01-15T10:20:42;100532.75;;;12.99;36.77
53246;BME280;39569;51.090;-1.786;2024-01-15T10:23:09;100527.50;;;12.91;36.80
53246;BME280;39569;51.090;-1.786;2024-01-15T10:25:37;100529.75;;;13.43;36.30
53246;BME280;39569;51.090;-1.786;2024-01-15T10:28:04;100536.97;;;13.08;36.88
53246;BME280;39569;51.090;-1.786;2024-01-15T10:30:32;100542.84;;;13.25;36.46
53246;BME280;39569;51.090;-1.786;2024-01-15T10:33:00;100541.06;;;13.04;37.41
53246;BME280;39569;51.090;-1.786;2024-01-15T10:35:28;100534.53;;;13.88;36.06
53246;BME280;39569;51.090;-1.786;2024-01-15T10:37:55;100540.06;;;13.73;36.46
53246;BME280;39569;51.090;-1.786;2024-01-15T10:40:22;100540.44;;;14.24;35.22
53246;BME280;39569;51.090;-1.786;2024-01-15T10:42:51;100540.50;;;14.37;34.74
53246;BME280;39569;51.090;-1.786;2024-01-15T10:45:18;100535.00;;;17.80;30.20
53246;BME280;39569;51.090;-1.786;2024-01-15T10:47:45;100542.47;;;18.61;28.35
53246;BME280;39569;51.090;-1.786;2024-01-15T10:50:12;100533.16;;;19.56;26.30
53246;BME280;39569;51.090;-1.786;2024-01-15T10:52:40;100540.31;;;19.63;26.15
53246;BME280;39569;51.090;-1.786;2024-01-15T10:55:08;100533.00;;;20.14;26.43
53246;BME280;39569;51.090;-1.786;2024-01-15T10:57:35;100545.19;;;20.00;26.02
53246;BME280;39569;51.090;-1.786;2024-01-15T11:00:05;100538.34;;;19.98;26.30
53246;BME280;39569;51.090;-1.786;2024-01-15T11:02:34;100544.84;;;20.36;27.07
53246;BME280;39569;51.090;-1.786;2024-01-15T11:05:02;100540.31;;;20.70;25.39
53246;BME280;39569;51.090;-1.786;2024-01-15T11:07:30;100544.84;;;20.36;25.73
53246;BME280;39569;51.090;-1.786;2024-01-15T11:09:57;100543.00;;;21.15;25.60
53246;BME280;39569;51.090;-1.786;2024-01-15T11:12:24;100551.81;;;21.05;24.73
53246;BME280;39569;51.090;-1.786;2024-01-15T11:14:51;100556.22;;;19.82;26.62
53246;BME280;39569;51.090;-1.786;2024-01-15T11:17:21;100554.59;;;20.09;26.49
53246;BME280;39569;51.090;-1.786;2024-01-15T11:19:48;100546.09;;;19.66;27.04
53246;BME280;39569;51.090;-1.786;2024-01-15T11:22:49;100534.03;;;21.14;25.12
53246;BME280;39569;51.090;-1.786;2024-01-15T11:25:18;100545.34;;;20.62;26.00
53246;BME280;39569;51.090;-1.786;2024-01-15T11:27:46;100541.22;;;21.42;25.16
53246;BME280;39569;51.090;-1.786;2024-01-15T11:30:16;100545.09;;;20.80;24.76
53246;BME280;39569;51.090;-1.786;2024-01-15T11:32:46;100549.41;;;19.33;25.69
53246;BME280;39569;51.090;-1.786;2024-01-15T11:35:13;100555.38;;;20.33;24.86
53246;BME280;39569;51.090;-1.786;2024-01-15T11:37:59;100559.63;;;19.66;25.77
53246;BME280;39569;51.090;-1.786;2024-01-15T11:40:37;100553.94;;;19.91;25.08
53246;BME280;39569;51.090;-1.786;2024-01-15T11:43:05;100556.28;;;20.38;25.09
53246;BME280;39569;51.090;-1.786;2024-01-15T11:45:32;100539.81;;;20.57;24.66
53246;BME280;39569;51.090;-1.786;2024-01-15T11:48:18;100538.06;;;20.11;23.98
53246;BME280;39569;51.090;-1.786;2024-01-15T11:50:48;100537.38;;;20.27;24.60
53246;BME280;39569;51.090;-1.786;2024-01-15T11:53:27;100539.06;;;20.61;23.10
53246;BME280;39569;51.090;-1.786;2024-01-15T11:56:02;100544.56;;;20.49;23.10
53246;BME280;39569;51.090;-1.786;2024-01-15T11:58:29;100549.91;;;20.05;23.76
53246;BME280;39569;51.090;-1.786;2024-01-15T12:00:56;100544.97;;;20.41;23.42
53246;BME280;39569;51.090;-1.786;2024-01-15T12:03:25;100549.25;;;20.54;24.22
53246;BME280;39569;51.090;-1.786;2024-01-15T12:05:52;100555.03;;;20.29;24.46
53246;BME280;39569;51.090;-1.786;2024-01-15T12:08:21;100560.59;;;19.60;24.57
53246;BME280;39569;51.090;-1.786;2024-01-15T12:10:48;100561.34;;;18.91;25.51
53246;BME280;39569;51.090;-1.786;2024-01-15T12:13:15;100559.13;;;19.92;24.12
53246;BME280;39569;51.090;-1.786;2024-01-15T12:15:44;100561.63;;;19.13;24.51
53246;BME280;39569;51.090;-1.786;2024-01-15T12:18:12;100573.69;;;18.28;25.01
53246;BME280;39569;51.090;-1.786;2024-01-15T12:20:41;100562.91;;;19.22;24.60
53246;BME280;39569;51.090;-1.786;2024-01-15T12:23:09;100571.50;;;18.07;25.04
53246;BME280;39569;51.090;-1.786;2024-01-15T12:25:35;100561.00;;;18.88;25.61
53246;BME280;39569;51.090;-1.786;2024-01-15T12:28:03;100559.72;;;18.49;25.54
53246;BME280;39569;51.090;-1.786;2024-01-15T12:30:30;100550.22;;;18.58;25.61
53246;BME280;39569;51.090;-1.786;2024-01-15T12:32:58;100544.78;;;17.81;25.87
53246;BME280;39569;51.090;-1.786;2024-01-15T12:35:25;100557.19;;;17.45;26.63
53246;BME280;39569;51.090;-1.786;2024-01-15T12:37:54;100554.00;;;17.91;25.68
53246;BME280;39569;51.090;-1.786;2024-01-15T12:40:21;100566.28;;;15.89;25.89